Time;durP1;ratioP1;P1;durP2;ratioP2;P2;SDS_P1;SDS_P2;PMS_P1;PMS_P2;Temp;Humidity;BMP_temperature;BMP_pressure;BME280_temperature;BME280_humidity;BME280_pressure;Samples;Min_cycle;Max_cycle;Signal;HPM_P1;HPM_P2
2021/09/07 00:02:15;;;;;;;16.90;9.90;;;;;;;5.41;77.96;100819.94;1717886;83;21058;-69
2021/09/07 00:04:43;;;;;;;16.67;9.98;;;;;;;5.41;78.01;100825.33;1724770;82;20920;-69
2021/09/07 00:07:10;;;;;;;16.52;9.28;;;;;;;5.47;77.90;100818.56;1719956;81;21019;-69
2021/09/07 00:12:01;;;;;;;15.00;9.00;;;;;;;5.58;77.69;100816.23;1764733;79;23207;-69
2021/09/07 00:14:29;;;;;;;15.10;9.43;;;;;;;5.46;77.88;100819.59;1743503;82;21479;-69
2021/09/07 00:16:56;;;;;;;17.87;10.20;;;;;;;5.40;78.06;100822.31;1750243;82;21015;-69
2021/09/07 00:19:23;;;;;;;18.85;10.43;;;;;;;5.36;78.23;100824.61;1750820;82;21030;-69
2021/09/07 00:21:49;;;;;;;16.32;9.28;;;;;;;5.38;78.20;100821.20;1750814;81;21062;-69
2021/09/07 00:24:18;;;;;;;16.55;9.83;;;;;;;5.42;77.98;100821.59;1751687;82;21482;-69
2021/09/07 00:26:44;;;;;;;17.82;9.78;;;;;;;5.45;77.98;100825.22;1724483;82;21071;-70
2021/09/07 00:29:10;;;;;;;18.50;9.80;;;;;;;5.45;78.07;100827.92;1670070;85;21026;-70
2021/09/07 00:31:37;;;;;;;16.32;9.78;;;;;;;5.40;78.26;100820.97;1685813;84;21084;-69
2021/09/07 00:34:03;;;;;;;17.35;10.10;;;;;;;5.34;78.35;100825.35;1687922;84;21082;-70
2021/09/07 00:36:29;;;;;;;17.82;9.58;;;;;;;5.27;78.44;100824.54;1704571;84;21118;-70
2021/09/07 00:38:56;;;;;;;16.67;9.33;;;;;;;5.27;78.48;100819.66;1704762;84;21042;-70
2021/09/07 00:41:22;;;;;;;16.45;9.00;;;;;;;5.31;78.32;100824.43;1704923;84;21114;-70
2021/09/07 00:43:49;;;;;;;17.42;9.95;;;;;;;5.33;78.15;100825.55;1693226;84;21042;-70
2021/09/07 00:46:15;;;;;;;19.32;10.88;;;;;;;5.30;78.12;100824.11;1693474;84;21607;-70
2021/09/07 00:48:42;;;;;;;18.82;11.20;;;;;;;5.24;78.32;100822.78;1700010;84;21027;-70
2021/09/07 00:51:08;;;;;;;17.07;11.00;;;;;;;5.16;78.54;100821.13;1684576;84;21719;-70
2021/09/07 00:53:35;;;;;;;18.52;10.20;;;;;;;5.10;78.71;100817.90;1706694;84;21086;-70
2021/09/07 00:56:02;;;;;;;18.23;10.78;;;;;;;5.09;78.69;100821.66;1719694;83;21580;-70
2021/09/07 00:58:30;;;;;;;17.15;10.40;;;;;;;5.12;78.45;100819.05;1701439;84;21050;-70
2021/09/07 01:00:57;;;;;;;17.80;10.45;;;;;;;5.14;78.40;100816.44;1704760;84;21062;-70
2021/09/07 01:03:24;;;;;;;17.95;10.68;;;;;;;5.14;78.54;100816.95;1699657;84;20990;-70
2021/09/07 01:05:50;;;;;;;19.10;11.25;;;;;;;5.09;78.73;100818.95;1711481;84;21090;-70
2021/09/07 01:08:18;;;;;;;20.72;11.10;;;;;;;5.04;78.88;100816.05;1708590;84;21554;-70
2021/09/07 01:10:45;;;;;;;19.35;10.95;;;;;;;5.03;78.90;100814.38;1623979;84;21071;-69
2021/09/07 01:13:12;;;;;;;21.48;11.38;;;;;;;5.08;78.80;100809.71;1710349;84;21046;-70
2021/09/07 01:15:39;;;;;;;17.15;10.08;;;;;;;5.08;78.62;100815.94;1706307;84;21078;-70
2021/09/07 01:18:06;;;;;;;21.30;11.90;;;;;;;5.02;78.58;100814.09;1687362;84;21490;-69
2021/09/07 01:20:33;;;;;;;22.35;12.43;;;;;;;4.93;78.74;100816.67;1656367;85;21137;-69
2021/09/07 01:23:00;;;;;;;22.25;12.58;;;;;;;4.86;78.98;100819.38;1705339;84;20992;-70
2021/09/07 01:25:26;;;;;;;22.25;12.60;;;;;;;4.85;79.02;100817.71;1711624;84;21517;-70
2021/09/07 01:27:52;;;;;;;20.77;11.88;;;;;;;4.88;78.85;100820.54;1707165;84;21105;-70
2021/09/07 01:30:19;;;;;;;21.97;12.53;;;;;;;4.90;78.85;100815.23;1709023;84;21530;-70
2021/09/07 01:32:46;;;;;;;20.02;11.85;;;;;;;4.91;79.03;100813.37;1708977;84;21018;-70
2021/09/07 01:35:12;;;;;;;22.37;13.48;;;;;;;4.86;79.26;100822.59;1703554;84;21564;-70
2021/09/07 01:37:40;;;;;;;22.07;12.78;;;;;;;4.80;79.39;100817.53;1657270;85;21046;-70
2021/09/07 01:40:08;;;;;;;22.40;12.78;;;;;;;4.80;79.53;100817.53;1690252;84;21568;-70
2021/09/07 01:42:34;;;;;;;22.30;13.20;;;;;;;4.85;79.46;100815.56;1711207;84;21030;-70
2021/09/07 01:45:00;;;;;;;;;;;;;;;4.89;79.40;100819.47;1714166;84;20991;-70
2021/09/07 01:47:27;;;;;;;21.60;12.45;;;;;;;4.87;79.44;100815.66;1702357;84;20137;-70
2021/09/07 01:49:53;;;;;;;24.67;13.60;;;;;;;4.76;79.82;100816.28;1702599;84;21022;-70
2021/09/07 01:52:19;;;;;;;23.67;12.28;;;;;;;4.73;80.00;100809.12;1688365;84;21063;-71
2021/09/07 01:54:48;;;;;;;26.00;13.48;;;;;;;4.74;79.95;100810.78;1689570;84;21498;-70
2021/09/07 01:57:16;;;;;;;20.97;12.00;;;;;;;4.78;79.66;100813.39;1683886;84;21070;-70
2021/09/07 01:59:44;;;;;;;20.37;12.65;;;;;;;4.80;79.37;100819.39;1693189;84;21577;-71
2021/09/07 02:02:12;;;;;;;21.60;12.58;;;;;;;4.74;79.25;100821.06;1711114;84;21023;-71
2021/09/07 02:04:39;;;;;;;22.17;13.38;;;;;;;4.66;79.41;100821.77;1711409;84;21055;-71
2021/09/07 02:07:07;;;;;;;24.82;12.82;;;;;;;4.58;79.58;100821.97;1686576;84;21066;-70
2021/09/07 02:09:35;;;;;;;21.30;12.47;;;;;;;4.58;79.68;100820.62;1683916;84;21482;-71
2021/09/07 02:12:02;;;;;;;;;;;;;;;4.62;79.50;100817.31;1692479;84;21026;-71
2021/09/07 02:14:31;;;;;;;25.10;13.78;;;;;;;4.65;79.40;100819.59;1697739;84;20128;-69
2021/09/07 02:16:58;;;;;;;24.77;13.38;;;;;;;4.60;79.50;100817.22;1675252;84;21054;-69
2021/09/07 02:19:25;;;;;;;23.30;13.38;;;;;;;4.60;79.67;100829.35;1734184;83;20996;-69
2021/09/07 02:21:52;;;;;;;22.50;13.20;;;;;;;4.57;79.94;100820.33;1715042;82;21420;-69
2021/09/07 02:24:19;;;;;;;25.27;13.83;;;;;;;4.52;80.16;100816.89;1708461;84;21053;-69
2021/09/07 02:26:47;;;;;;;22.50;13.15;;;;;;;4.55;80.11;100814.30;1678575;84;21114;-69
2021/09/07 02:29:14;;;;;;;22.42;12.78;;;;;;;4.59;79.78;100819.59;1686366;84;21493;-70
2021/09/07 02:31:42;;;;;;;23.05;13.85;;;;;;;4.61;79.57;100825.08;1698443;84;21023;-70
2021/09/07 02:34:09;;;;;;;23.90;13.70;;;;;;;4.57;79.59;100809.55;1703811;84;20943;-70
2021/09/07 02:36:37;;;;;;;22.45;13.50;;;;;;;4.49;79.86;100815.45;1714206;84;21603;-70
2021/09/07 02:39:05;;;;;;;24.87;14.63;;;;;;;4.44;80.03;100815.73;1670757;86;21275;-70
2021/09/07 02:41:32;;;;;;;27.30;14.05;;;;;;;4.39;80.25;100818.23;1680925;84;21041;-70
2021/09/07 02:43:59;;;;;;;25.40;13.85;;;;;;;4.40;80.32;100828.80;1687821;84;21457;-70
2021/09/07 02:46:26;;;;;;;22.65;13.10;;;;;;;4.45;80.08;100820.10;1681396;84;21059;-70
2021/09/07 02:48:54;;;;;;;22.27;12.82;;;;;;;4.49;79.94;100823.54;1701264;84;21589;-70
2021/09/07 02:51:21;;;;;;;27.02;14.05;;;;;;;4.47;79.95;100819.37;1701478;84;21570;-70
2021/09/07 02:53:48;;;;;;;27.07;14.10;;;;;;;4.43;80.24;100826.20;1675781;84;21054;-70
2021/09/07 02:56:16;;;;;;;21.15;13.15;;;;;;;4.39;80.49;100823.63;1687681;84;21938;-71
2021/09/07 02:58:44;;;;;;;26.25;13.88;;;;;;;4.40;80.52;100816.66;1690175;84;21003;-70
2021/09/07 03:01:12;;;;;;;21.90;12.23;;;;;;;4.45;80.34;100815.55;1707748;83;21074;-70
2021/09/07 03:03:38;;;;;;;;;;;;;;;4.48;80.34;100815.64;1695716;84;21006;-70
2021/09/07 03:06:05;;;;;;;22.15;12.90;;;;;;;4.47;80.40;100821.55;1685799;84;20578;-70
2021/09/07 03:08:32;;;;;;;;;;;;;;;4.35;80.76;100824.56;1676228;84;21007;-69
2021/09/07 03:10:59;;;;;;;25.12;12.95;;;;;;;4.31;81.00;100821.95;1674754;84;20157;-68
2021/09/07 03:13:26;;;;;;;23.20;12.82;;;;;;;4.20;81.29;100821.20;1651194;86;20995;-68
2021/09/07 03:15:53;;;;;;;22.07;11.85;;;;;;;4.23;81.33;100822.14;1678555;84;21043;-69
2021/09/07 03:18:19;;;;;;;19.55;11.90;;;;;;;4.32;81.08;100826.29;1698878;84;21051;-70
2021/09/07 03:20:47;;;;;;;24.45;12.85;;;;;;;4.38;80.99;100824.66;1659103;86;21008;-70
2021/09/07 03:23:16;;;;;;;20.92;12.33;;;;;;;4.38;80.95;100824.14;1657539;86;20996;-71
2021/09/07 03:25:43;;;;;;;24.25;13.03;;;;;;;4.35;81.10;100827.25;1653584;86;21633;-70
2021/09/07 03:28:11;;;;;;;22.67;12.18;;;;;;;4.32;81.29;100826.83;1637864;85;21003;-69
2021/09/07 03:30:39;;;;;;;23.75;12.95;;;;;;;4.36;81.40;100828.06;1674498;84;21130;-69
2021/09/07 03:33:05;;;;;;;24.45;13.88;;;;;;;4.44;81.28;100827.88;1692511;84;21525;-68
2021/09/07 03:35:32;;;;;;;23.67;12.18;;;;;;;4.52;81.19;100827.69;1688739;84;21091;-68
2021/09/07 03:38:00;;;;;;;27.90;12.50;;;;;;;4.57;81.26;100829.77;1687118;84;21051;-68
2021/09/07 03:40:26;;;;;;;24.72;12.82;;;;;;;4.56;81.40;100826.23;1698955;84;21006;-69
2021/09/07 03:42:55;;;;;;;21.70;11.70;;;;;;;4.53;81.48;100824.47;1701241;84;21568;-69
2021/09/07 03:45:23;;;;;;;19.55;11.70;;;;;;;4.57;81.55;100829.22;1681925;84;21086;-69
2021/09/07 03:47:49;;;;;;;;;;;;;;;4.65;81.36;100825.50;1675505;86;21633;-69
2021/09/07 03:50:16;;;;;;;20.08;11.03;;;;;;;4.73;81.19;100829.34;1657468;86;20121;-69
2021/09/07 03:52:44;;;;;;;23.25;12.50;;;;;;;4.77;81.18;100821.16;1657420;86;21098;-69
2021/09/07 03:55:11;;;;;;;20.12;11.60;;;;;;;4.82;81.30;100832.14;1695078;84;21056;-69
2021/09/07 03:57:39;;;;;;;22.50;13.28;;;;;;;4.81;81.53;100828.64;1696061;84;21033;-69
2021/09/07 04:00:08;;;;;;;22.85;12.70;;;;;;;4.84;81.76;100832.78;1677882;84;21466;-69
2021/09/07 04:02:40;;;;;;;20.90;11.68;;;;;;;4.88;81.96;100832.67;1700936;84;21007;-68
2021/09/07 04:05:08;;;;;;;22.13;12.58;;;;;;;5.01;81.98;100833.50;1674030;84;21007;-69
2021/09/07 04:07:34;;;;;;;20.48;12.05;;;;;;;5.18;81.75;100827.65;1691028;84;21553;-68
2021/09/07 04:10:02;;;;;;;25.30;11.88;;;;;;;5.33;81.63;100831.78;1698564;84;21004;-69
2021/09/07 04:12:30;;;;;;;25.52;12.35;;;;;;;5.43;81.54;100828.12;1674493;84;21057;-69
2021/09/07 04:14:57;;;;;;;23.10;12.80;;;;;;;5.51;81.65;100831.95;1710124;84;21022;-69
2021/09/07 04:17:26;;;;;;;22.20;12.93;;;;;;;5.60;81.74;100831.73;1704015;84;21100;-69
2021/09/07 04:19:53;;;;;;;21.57;12.00;;;;;;;5.71;81.84;100837.27;1712932;84;21118;-70
2021/09/07 04:22:20;;;;;;;23.30;12.10;;;;;;;5.89;81.71;100829.34;1708838;84;21486;-70
2021/09/07 04:24:47;;;;;;;22.32;12.80;;;;;;;6.12;81.33;100834.23;1702080;84;21030;-70
2021/09/07 04:27:14;;;;;;;19.20;12.13;;;;;;;6.27;81.13;100832.05;1706043;83;21447;-70
2021/09/07 04:29:41;;;;;;;;;;;;;;;6.37;81.04;100832.42;1717689;84;21508;-70
2021/09/07 04:32:07;;;;;;;19.23;10.82;;;;;;;6.45;80.92;100832.14;1675440;84;20157;-70
2021/09/07 04:34:33;;;;;;;23.62;11.43;;;;;;;6.50;80.90;100834.20;1704717;84;21073;-70
2021/09/07 04:37:00;;;;;;;20.72;11.28;;;;;;;6.71;80.44;100839.25;1704604;84;21556;-69
2021/09/07 04:39:27;;;;;;;19.42;11.22;;;;;;;6.83;80.00;100837.50;1709270;84;21053;-69
2021/09/07 04:41:53;;;;;;;18.98;11.45;;;;;;;6.94;79.84;100835.95;1703741;84;21591;-69
2021/09/07 04:44:23;;;;;;;16.62;10.45;;;;;;;7.04;79.72;100836.28;1709902;84;21037;-69
2021/09/07 04:46:51;;;;;;;19.80;10.88;;;;;;;7.20;79.39;100837.05;1706503;84;21076;-69
2021/09/07 04:49:18;;;;;;;19.00;11.10;;;;;;;7.44;78.84;100840.76;1701407;83;21026;-70
2021/09/07 04:51:44;;;;;;;18.40;11.65;;;;;;;7.58;78.12;100840.12;1687124;84;21103;-69
2021/09/07 04:54:11;;;;;;;17.92;11.33;;;;;;;7.65;77.71;100840.31;1686382;85;21620;-69
2021/09/07 04:56:37;;;;;;;20.68;11.78;;;;;;;7.73;77.52;100842.73;1706413;83;21041;-69
2021/09/07 04:59:05;;;;;;;17.67;11.48;;;;;;;7.82;77.16;100837.84;1714092;84;21076;-69
2021/09/07 05:01:31;;;;;;;20.00;10.70;;;;;;;7.88;76.74;100839.12;1713400;84;21084;-69
2021/09/07 05:03:57;;;;;;;;;;;;;;;8.02;76.41;100837.06;1713630;84;21057;-69
2021/09/07 05:06:24;;;;;;;17.92;10.00;;;;;;;8.20;75.88;100832.12;1705345;84;20248;-69
2021/09/07 05:08:50;;;;;;;16.02;10.00;;;;;;;8.33;75.48;100834.16;1706202;84;21498;-69
2021/09/07 05:11:18;;;;;;;19.37;10.90;;;;;;;8.49;75.24;100829.45;1688142;84;21097;-69
2021/09/07 05:13:45;;;;;;;18.98;11.30;;;;;;;8.69;75.09;100835.92;1701319;83;20951;-69
2021/09/07 05:16:11;;;;;;;18.92;11.50;;;;;;;8.91;74.46;100837.55;1709883;83;21037;-69
2021/09/07 05:18:38;;;;;;;;;;;;;;;9.09;74.10;100839.34;1723035;83;20974;-71
2021/09/07 05:21:04;;;;;;;17.87;10.63;;;;;;;9.31;73.81;100848.58;1694959;82;20144;-68
2021/09/07 05:23:31;;;;;;;19.90;11.95;;;;;;;9.48;73.67;100843.55;1689023;83;21591;-69
2021/09/07 05:25:57;;;;;;;20.90;11.90;;;;;;;9.69;72.66;100843.98;1684537;83;21045;-69
2021/09/07 05:28:24;;;;;;;17.95;10.25;;;;;;;9.92;72.31;100846.63;1696461;83;21013;-69
2021/09/07 05:30:50;;;;;;;18.45;10.10;;;;;;;10.21;71.88;100848.88;1718896;83;21030;-69
2021/09/07 05:33:16;;;;;;;14.93;10.30;;;;;;;10.59;71.58;100850.98;1670368;83;21005;-69
2021/09/07 05:35:43;;;;;;;;;;;;;;;10.98;71.27;100850.84;1666451;85;21106;-70
2021/09/07 05:38:09;;;;;;;14.20;9.18;;;;;;;11.40;71.07;100852.61;1707875;83;20116;-69
2021/09/07 05:40:35;;;;;;;18.17;10.25;;;;;;;11.68;69.73;100860.36;1696575;84;21047;-70
2021/09/07 05:43:02;;;;;;;16.32;10.20;;;;;;;11.93;68.81;100849.82;1704900;83;21045;-70
2021/09/07 05:45:29;;;;;;;15.72;10.55;;;;;;;12.15;67.11;100851.98;1642841;86;21073;-70
2021/09/07 05:47:55;;;;;;;;;;;;;;;12.41;67.10;100856.66;1717675;83;21053;-70
2021/09/07 05:50:22;;;;;;;16.75;10.20;;;;;;;12.79;66.39;100858.40;1720991;83;20141;-69
2021/09/07 05:52:49;;;;;;;17.32;10.18;;;;;;;12.93;64.86;100861.55;1717964;83;21470;-70
2021/09/07 05:55:17;;;;;;;12.90;9.18;;;;;;;13.13;64.64;100857.65;1704406;83;21021;-70
2021/09/07 05:57:44;;;;;;;17.62;10.60;;;;;;;13.38;64.17;100856.47;1696845;83;21038;-69
2021/09/07 06:00:11;;;;;;;;;;;;;;;13.73;63.38;100860.50;1724469;83;21077;-70
2021/09/07 06:02:41;;;;;;;16.50;8.48;;;;;;;14.08;63.45;100862.05;1710493;83;20130;-70
2021/09/07 06:05:09;;;;;;;12.78;8.48;;;;;;;14.44;62.48;100864.39;1696373;83;21532;-70
2021/09/07 06:07:35;;;;;;;13.28;8.70;;;;;;;14.81;61.12;100865.55;1704145;83;20982;-70
2021/09/07 06:10:02;;;;;;;;;;;;;;;15.11;59.93;100871.06;1725221;83;21017;-71
2021/09/07 06:12:29;;;;;;;13.40;8.20;;;;;;;15.41;58.68;100868.29;1696357;83;20139;-70
2021/09/07 06:14:57;;;;;;;13.38;8.55;;;;;;;15.58;57.20;100873.53;1707865;83;21022;-70
2021/09/07 06:17:23;;;;;;;13.35;8.90;;;;;;;15.77;56.57;100868.25;1683413;85;21077;-70
2021/09/07 06:19:51;;;;;;;11.22;8.40;;;;;;;16.00;55.66;100875.88;1675242;84;21466;-70
2021/09/07 06:22:17;;;;;;;;;;;;;;;16.25;55.49;100870.84;1706933;83;21560;-70
2021/09/07 06:24:45;;;;;;;13.50;8.15;;;;;;;16.37;54.06;100878.18;1681815;84;20450;-69
2021/09/07 06:27:12;;;;;;;10.60;7.30;;;;;;;16.40;54.33;100886.69;1712690;83;21067;-69
2021/09/07 06:29:38;;;;;;;;;;;;;;;16.61;53.66;100883.33;1689078;85;21038;-70
2021/09/07 06:32:06;;;;;;;10.50;6.37;;;;;;;16.80;52.40;100874.66;1697927;83;20111;-69
2021/09/07 06:34:33;;;;;;;12.53;6.55;;;;;;;16.81;52.00;100874.95;1669899;83;21536;-71
2021/09/07 06:36:59;;;;;;;9.75;6.20;;;;;;;16.96;51.94;100880.06;1697537;83;21647;-69
2021/09/07 06:39:26;;;;;;;10.20;5.92;;;;;;;17.07;50.84;100876.13;1689901;84;21574;-70
2021/09/07 06:41:52;;;;;;;9.93;6.28;;;;;;;17.18;51.12;100883.20;1692450;84;21591;-70
2021/09/07 06:44:18;;;;;;;8.30;5.30;;;;;;;17.40;50.12;100886.29;1695915;84;21030;-70
2021/09/07 06:46:45;;;;;;;8.28;5.72;;;;;;;17.60;48.98;100886.15;1686675;84;21132;-70
2021/09/07 06:49:12;;;;;;;7.33;5.17;;;;;;;17.69;48.61;100883.02;1688973;84;21067;-70
2021/09/07 06:51:39;;;;;;;11.53;5.95;;;;;;;17.79;47.94;100886.20;1701361;84;21126;-70
2021/09/07 06:54:05;;;;;;;8.20;5.30;;;;;;;17.94;46.91;100890.19;1693508;84;21010;-70
2021/09/07 06:56:31;;;;;;;9.15;5.17;;;;;;;18.06;46.27;100891.16;1681211;84;21144;-70
2021/09/07 06:58:58;;;;;;;6.53;4.30;;;;;;;18.08;46.37;100886.98;1690591;84;21101;-70
2021/09/07 07:01:24;;;;;;;8.33;5.10;;;;;;;18.17;46.29;100887.17;1680050;83;21122;-71
2021/09/07 07:03:51;;;;;;;8.00;4.75;;;;;;;18.07;45.98;100886.72;1696081;83;21070;-71
2021/09/07 07:06:17;;;;;;;8.73;5.00;;;;;;;18.23;45.77;100895.08;1692806;84;21070;-71
2021/09/07 07:08:44;;;;;;;7.78;4.42;;;;;;;18.34;45.26;100891.63;1675784;84;21074;-70
2021/09/07 07:11:12;;;;;;;7.80;4.53;;;;;;;18.53;45.65;100893.08;1684163;84;21114;-71
2021/09/07 07:13:38;;;;;;;7.58;4.33;;;;;;;18.75;44.77;100888.60;1668223;84;21657;-70
2021/09/07 07:16:06;;;;;;;6.95;4.15;;;;;;;18.89;44.20;100892.81;1677948;85;21704;-71
2021/09/07 07:18:32;;;;;;;6.37;4.45;;;;;;;19.13;44.45;100885.83;1667844;85;21071;-71
2021/09/07 07:20:59;;;;;;;7.25;4.60;;;;;;;19.38;43.48;100892.28;1649743;84;21087;-71
2021/09/07 07:23:26;;;;;;;9.83;4.78;;;;;;;19.55;43.09;100890.39;1726063;81;21020;-71
2021/09/07 07:25:52;;;;;;;7.20;4.20;;;;;;;19.72;42.75;100890.06;1726597;81;21055;-71
2021/09/07 07:28:19;;;;;;;8.03;4.08;;;;;;;19.91;41.14;100890.55;1708901;82;21039;-71
2021/09/07 07:30:45;;;;;;;6.55;4.17;;;;;;;19.99;41.25;100894.78;1710577;82;21048;-71
2021/09/07 07:33:12;;;;;;;6.10;3.72;;;;;;;20.12;40.98;100895.94;1723581;82;21063;-71
2021/09/07 07:35:38;;;;;;;7.08;3.58;;;;;;;20.24;39.93;100891.52;1706308;82;21000;-71
2021/09/07 07:38:05;;;;;;;7.72;3.50;;;;;;;20.36;39.43;100889.65;1732492;81;21231;-71
2021/09/07 07:40:31;;;;;;;6.42;4.10;;;;;;;20.43;40.09;100891.44;1641716;86;21581;-71
2021/09/07 07:42:58;;;;;;;6.30;3.37;;;;;;;20.56;39.23;100898.05;1714704;81;21570;-70
2021/09/07 07:45:24;;;;;;;7.35;3.90;;;;;;;20.50;37.82;100893.77;1657573;84;21525;-70
2021/09/07 07:47:51;;;;;;;7.42;3.50;;;;;;;20.44;38.00;100886.13;1724977;82;21027;-73
2021/09/07 07:50:17;;;;;;;6.72;3.10;;;;;;;20.54;38.77;100892.03;1714697;82;20964;-70
2021/09/07 07:52:45;;;;;;;7.53;3.50;;;;;;;20.64;37.91;100894.56;1727626;82;21106;-71
2021/09/07 07:55:12;;;;;;;5.83;2.80;;;;;;;20.75;37.10;100900.12;1708971;82;21015;-71
2021/09/07 07:57:38;;;;;;;6.62;3.33;;;;;;;20.89;36.99;100897.32;1731002;82;21079;-70
2021/09/07 08:00:05;;;;;;;4.60;2.75;;;;;;;20.98;36.02;100897.63;1709658;82;21502;-70
2021/09/07 08:02:32;;;;;;;4.70;3.08;;;;;;;20.96;35.78;100891.61;1700215;82;21070;-70
2021/09/07 08:04:58;;;;;;;5.30;2.80;;;;;;;21.03;35.50;100885.07;1726751;82;20999;-70
2021/09/07 08:07:25;;;;;;;6.80;3.00;;;;;;;21.07;36.86;100891.63;1733199;82;21024;-70
2021/09/07 08:09:51;;;;;;;4.72;3.08;;;;;;;21.18;35.00;100881.15;1726939;82;21517;-69
2021/09/07 08:12:18;;;;;;;5.00;2.98;;;;;;;21.28;35.53;100881.71;1708335;81;21505;-69
2021/09/07 08:14:46;;;;;;;5.30;3.25;;;;;;;21.30;35.20;100882.20;1745140;82;21059;-69
2021/09/07 08:17:13;;;;;;;4.12;2.72;;;;;;;21.39;35.38;100885.04;1739509;82;21031;-69
2021/09/07 08:19:40;;;;;;;5.03;2.70;;;;;;;21.46;35.15;100881.81;1727634;82;20979;-70
2021/09/07 08:22:06;;;;;;;4.30;2.30;;;;;;;21.48;34.74;100883.12;1670318;85;21023;-68
2021/09/07 08:24:33;;;;;;;4.58;2.83;;;;;;;21.49;33.93;100877.84;1673904;84;20995;-69
2021/09/07 08:27:00;;;;;;;4.67;2.90;;;;;;;21.44;33.70;100879.91;1694251;84;21024;-69
2021/09/07 08:29:26;;;;;;;6.25;3.00;;;;;;;21.39;34.25;100873.96;1694026;84;21504;-70
2021/09/07 08:31:52;;;;;;;5.62;3.37;;;;;;;21.58;34.00;100871.77;1694949;84;21004;-70
2021/09/07 08:34:19;;;;;;;5.00;2.75;;;;;;;21.60;33.98;100872.30;1686793;84;21502;-70
2021/09/07 08:36:45;;;;;;;5.08;3.02;;;;;;;21.54;33.63;100875.52;1688624;84;21033;-70
2021/09/07 08:39:12;;;;;;;4.60;2.60;;;;;;;21.44;33.70;100872.98;1704302;84;21067;-70
2021/09/07 08:41:39;;;;;;;4.92;2.67;;;;;;;21.46;33.00;100880.44;1711686;84;21030;-70
2021/09/07 08:44:06;;;;;;;5.90;2.83;;;;;;;21.53;33.42;100882.19;1688882;84;21469;-70
2021/09/07 08:46:32;;;;;;;4.92;2.40;;;;;;;21.52;33.00;100884.70;1694370;84;21037;-70
2021/09/07 08:48:59;;;;;;;4.00;2.40;;;;;;;21.56;33.11;100880.16;1682360;85;20988;-70
2021/09/07 08:51:26;;;;;;;3.98;2.05;;;;;;;21.62;32.34;100877.50;1728968;82;21517;-70
2021/09/07 08:53:54;;;;;;;3.92;2.22;;;;;;;21.56;33.52;100871.29;1726837;82;21010;-70
2021/09/07 08:56:20;;;;;;;3.95;2.33;;;;;;;21.50;32.99;100873.12;1721267;82;21098;-70
2021/09/07 08:58:47;;;;;;;6.15;2.58;;;;;;;21.34;33.31;100869.36;1737663;82;21526;-70
2021/09/07 09:01:16;;;;;;;5.62;2.58;;;;;;;21.30;33.94;100871.69;1731075;82;20983;-70
2021/09/07 09:03:46;;;;;;;4.58;1.85;;;;;;;21.32;32.93;100871.64;1736615;82;21474;-70
2021/09/07 09:06:12;;;;;;;3.33;1.70;;;;;;;21.34;32.72;100863.00;1721580;82;20995;-70
2021/09/07 09:08:39;;;;;;;5.03;2.00;;;;;;;21.30;32.79;100869.73;1736782;82;21494;-70
2021/09/07 09:11:07;;;;;;;3.92;1.90;;;;;;;21.28;33.35;100866.48;1738558;82;21046;-70
2021/09/07 09:13:44;;;;;;;4.03;1.70;;;;;;;21.34;33.34;100868.54;1720151;82;20980;-70
2021/09/07 09:16:12;;;;;;;4.05;1.87;;;;;;;21.44;32.87;100861.34;1738152;82;21518;-70
2021/09/07 09:18:43;;;;;;;5.08;1.85;;;;;;;21.38;32.85;100860.41;1737737;82;20996;-70
2021/09/07 09:21:32;;;;;;;2.87;1.75;;;;;;;21.32;32.68;100867.48;1720985;82;21047;-70
2021/09/07 09:24:18;;;;;;;3.50;1.90;;;;;;;21.29;32.62;100855.62;1723084;82;20996;-70
2021/09/07 09:27:01;;;;;;;7.87;1.90;;;;;;;21.11;33.82;100855.29;1714105;82;21052;-70
2021/09/07 09:29:34;;;;;;;3.35;1.55;;;;;;;20.88;34.49;100863.28;1735920;82;21048;-69
2021/09/07 09:32:03;;;;;;;3.67;2.10;;;;;;;20.60;35.22;100865.88;1738975;82;21016;-70
2021/09/07 09:34:30;;;;;;;5.17;2.20;;;;;;;20.46;34.76;100865.92;1729008;82;21549;-70
2021/09/07 09:37:08;;;;;;;9.55;2.60;;;;;;;20.21;35.47;100864.48;1738024;81;21614;-69
2021/09/07 09:39:49;;;;;;;3.80;1.85;;;;;;;20.01;35.86;100864.09;1732199;82;21574;-69
2021/09/07 09:42:26;;;;;;;4.33;2.08;;;;;;;19.81;36.40;100853.69;1725293;82;21492;-69
2021/09/07 09:45:01;;;;;;;3.50;1.90;;;;;;;19.81;37.81;100853.69;1737863;82;21000;-69
2021/09/07 09:47:38;;;;;;;3.35;1.95;;;;;;;19.90;37.43;100857.13;1717731;82;20999;-70
2021/09/07 09:50:06;;;;;;;3.72;1.92;;;;;;;19.99;36.92;100853.33;1724148;82;20980;-69
2021/09/07 09:52:41;;;;;;;3.80;2.08;;;;;;;20.09;36.94;100860.58;1729247;82;21011;-70
2021/09/07 09:55:10;;;;;;;6.75;2.40;;;;;;;20.06;36.95;100853.73;1738869;82;21016;-70
2021/09/07 09:57:37;;;;;;;5.72;2.10;;;;;;;19.76;36.64;100862.09;1717938;82;20976;-70
2021/09/07 10:00:05;;;;;;;5.28;2.20;;;;;;;19.51;37.04;100856.22;1732865;82;20985;-70
2021/09/07 10:02:33;;;;;;;8.50;2.00;;;;;;;19.37;36.50;100856.98;1738536;82;20984;-70
2021/09/07 10:05:00;;;;;;;4.50;1.87;;;;;;;19.30;38.37;100856.55;1732725;82;20921;-70
2021/09/07 10:07:28;;;;;;;3.70;1.75;;;;;;;19.23;38.49;100857.50;1713986;82;21000;-69
2021/09/07 10:09:56;;;;;;;4.75;2.17;;;;;;;19.04;36.65;100854.50;1729401;82;21518;-70
2021/09/07 10:12:38;;;;;;;5.12;2.20;;;;;;;18.75;38.27;100847.23;1724069;82;21073;-69
2021/09/07 10:15:19;;;;;;;7.97;2.30;;;;;;;18.67;39.30;100850.66;1729419;82;21012;-70
2021/09/07 10:17:46;;;;;;;5.58;1.98;;;;;;;18.85;39.50;100846.24;1737862;82;21028;-69
2021/09/07 10:20:36;;;;;;;5.37;1.67;;;;;;;19.19;39.29;100848.19;1725137;81;20988;-70
2021/09/07 10:25:53;;;;;;;7.00;1.80;;;;;;;19.68;36.34;100850.36;1692708;82;21108;-70
2021/09/07 10:28:46;;;;;;;4.45;2.20;;;;;;;19.81;36.62;100845.95;1725125;82;21039;-68
2021/09/07 10:31:18;;;;;;;5.42;1.87;;;;;;;19.97;37.29;100843.72;1728683;82;21526;-68
2021/09/07 10:34:00;;;;;;;5.05;1.60;;;;;;;20.06;35.95;100837.16;1709733;82;21514;-68
2021/09/07 10:36:32;;;;;;;4.85;1.82;;;;;;;20.09;36.42;100837.09;1722164;82;21078;-70
2021/09/07 10:39:01;;;;;;;3.42;1.65;;;;;;;20.04;36.25;100832.51;1719222;82;21008;-70
2021/09/07 10:41:39;;;;;;;4.58;1.85;;;;;;;20.08;36.68;100840.45;1719831;82;21025;-70
2021/09/07 10:44:11;;;;;;;3.12;1.65;;;;;;;20.20;36.12;100834.38;1723683;82;21000;-70
2021/09/07 10:46:44;;;;;;;4.47;1.80;;;;;;;20.19;35.44;100837.69;1708993;82;21016;-70
2021/09/07 10:49:28;;;;;;;3.37;1.80;;;;;;;20.00;35.47;100835.62;1718099;82;21463;-70
2021/09/07 10:52:23;;;;;;;11.78;5.85;;;;;;;19.83;36.47;100836.81;1721842;82;21011;-70
2021/09/07 10:55:10;;;;;;;4.62;2.20;;;;;;;19.74;37.00;100830.34;1661234;82;21111;-70
2021/09/07 10:57:43;;;;;;;3.08;2.00;;;;;;;19.83;36.92;100829.91;1733557;82;21016;-70
2021/09/07 11:00:23;;;;;;;3.65;1.92;;;;;;;19.97;36.25;100828.52;1720721;82;21494;-70
2021/09/07 11:02:59;;;;;;;4.53;1.77;;;;;;;19.95;36.74;100835.72;1738155;82;21051;-70
2021/09/07 11:05:32;;;;;;;4.45;1.98;;;;;;;19.92;36.89;100836.90;1728228;82;21031;-69
2021/09/07 11:08:08;;;;;;;4.75;2.20;;;;;;;19.91;37.23;100831.93;1714381;82;21451;-68
2021/09/07 11:10:51;;;;;;;6.10;2.37;;;;;;;19.77;36.22;100828.34;1684820;84;21151;-69
2021/09/07 11:13:29;;;;;;;5.00;2.15;;;;;;;19.60;36.68;100822.61;1695220;84;21038;-69
2021/09/07 11:16:01;;;;;;;3.22;1.70;;;;;;;19.50;36.99;100829.16;1688888;84;21101;-69
2021/09/07 11:18:34;;;;;;;5.22;1.90;;;;;;;19.46;38.87;100819.84;1692370;84;21082;-69
2021/09/07 11:21:04;;;;;;;5.67;1.90;;;;;;;19.54;38.58;100825.22;1666272;86;21085;-69
2021/09/07 11:23:37;;;;;;;6.65;2.37;;;;;;;19.60;38.82;100825.38;1691777;84;21354;-69
2021/09/07 11:26:12;;;;;;;4.22;1.95;;;;;;;19.55;37.67;100822.72;1680261;84;21073;-69
2021/09/07 11:28:46;;;;;;;6.37;2.45;;;;;;;19.40;36.44;100818.27;1694845;84;21045;-69
2021/09/07 11:31:13;;;;;;;8.13;4.42;;;;;;;19.30;36.90;100816.52;1638847;86;21068;-69
2021/09/07 11:33:41;;;;;;;5.58;3.12;;;;;;;19.34;37.96;100812.00;1683510;84;21031;-69
2021/09/07 11:36:10;;;;;;;4.08;2.25;;;;;;;19.50;38.57;100808.44;1692647;83;21057;-69